Time;durP1;ratioP1;P1;durP2;ratioP2;P2;SDS_P1;SDS_P2;PMS_P1;PMS_P2;Temp;Humidity;BMP_temperature;BMP_pressure;BME280_temperature;BME280_humidity;BME280_pressure;Samples;Min_cycle;Max_cycle;Signal;HPM_P1;HPM_P2
2023/07/08 00:02:09;;;;;;;16.75;5.00;;;;;;;17.55;88.64;101465.22;5039949;28;20048;-80
2023/07/08 00:04:34;;;;;;;12.15;4.68;;;;;;;17.54;86.94;101458.06;5039666;28;20026;-80
2023/07/08 00:06:59;;;;;;;14.93;4.82;;;;;;;17.55;87.56;101459.78;5043962;28;20086;-80
2023/07/08 00:09:25;;;;;;;13.30;5.18;;;;;;;17.50;90.35;101453.91;5041756;28;20184;-80
2023/07/08 00:11:51;;;;;;;15.70;5.18;;;;;;;17.50;87.87;101459.34;5043477;28;20025;-80
2023/07/08 00:14:16;;;;;;;15.38;5.45;;;;;;;17.46;89.07;101456.06;5040079;28;20385;-80
2023/07/08 00:16:42;;;;;;;15.18;5.10;;;;;;;17.43;88.92;101457.19;5041687;28;20036;-80
2023/07/08 00:19:09;;;;;;;17.15;6.10;;;;;;;17.38;87.76;101456.78;5043753;28;20484;-80
2023/07/08 00:21:34;;;;;;;14.65;5.75;;;;;;;17.32;88.76;101449.22;5045270;28;20035;-80
2023/07/08 00:24:00;;;;;;;14.38;5.32;;;;;;;17.32;88.51;101448.31;5041592;28;20481;-80
2023/07/08 00:26:27;;;;;;;16.05;5.97;;;;;;;17.29;88.42;101450.34;5020479;28;20028;-80
2023/07/08 00:28:54;;;;;;;16.00;5.55;;;;;;;17.26;88.69;101449.75;5044677;28;20032;-80
2023/07/08 00:31:23;;;;;;;10.75;4.70;;;;;;;17.23;88.34;101450.03;5023580;28;20021;-80
2023/07/08 00:33:48;;;;;;;;;;;;;;;17.30;85.65;101451.19;5032114;28;20037;-80
2023/07/08 00:36:16;;;;;;;15.02;5.65;;;;;;;17.18;88.25;101444.19;5022781;28;20292;-80
2023/07/08 00:38:44;;;;;;;13.98;5.90;;;;;;;17.16;89.54;101443.44;5041836;28;20026;-80
2023/07/08 00:41:14;;;;;;;16.48;6.28;;;;;;;17.09;88.82;101437.75;5022986;28;20168;-80
2023/07/08 00:43:41;;;;;;;;;;;;;;;17.18;86.17;101446.91;5028696;28;20022;-81
2023/07/08 00:46:31;;;;;;;16.52;6.03;;;;;;;17.06;86.85;101433.44;5030175;28;20074;-81
2023/07/08 00:49:28;;;;;;;14.52;5.72;;;;;;;17.04;88.27;101437.28;5038231;28;20074;-79
2023/07/08 00:51:53;;;;;;;15.48;5.88;;;;;;;16.99;87.61;101432.28;5037902;28;20024;-81
2023/07/08 00:54:19;;;;;;;15.90;6.03;;;;;;;16.99;88.37;101428.72;5040379;28;20100;-80
2023/07/08 00:56:45;;;;;;;17.02;6.20;;;;;;;16.96;90.06;101426.28;5025921;28;20419;-80
2023/07/08 00:59:28;;;;;;;15.40;5.72;;;;;;;16.94;87.44;101429.13;5044417;28;20119;-80
2023/07/08 01:01:55;;;;;;;14.45;5.15;;;;;;;16.90;88.46;101433.13;5039596;28;20032;-72
2023/07/08 01:04:28;;;;;;;12.77;5.10;;;;;;;16.86;88.67;101429.78;5050832;28;20510;-72
2023/07/08 01:06:58;;;;;;;14.65;5.97;;;;;;;16.85;87.63;101429.94;5045046;28;20029;-72
2023/07/08 01:09:28;;;;;;;19.13;6.90;;;;;;;16.84;88.80;101430.91;5063452;28;20492;-73
2023/07/08 01:11:57;;;;;;;13.85;5.60;;;;;;;16.85;88.55;101427.22;5052715;28;20503;-73
2023/07/08 01:14:26;;;;;;;20.27;6.97;;;;;;;16.81;89.42;101433.91;5037759;28;20021;-73
2023/07/08 01:16:51;;;;;;;13.95;5.57;;;;;;;16.80;89.20;101433.06;5040971;28;20036;-72
2023/07/08 01:19:20;;;;;;;16.35;5.55;;;;;;;16.77;89.66;101431.47;5066652;28;20021;-72
2023/07/08 01:21:54;;;;;;;15.18;5.82;;;;;;;16.77;89.60;101433.34;5057394;28;20122;-72
2023/07/08 01:24:19;;;;;;;16.38;6.07;;;;;;;16.72;89.36;101432.88;5054311;28;20063;-73
2023/07/08 01:26:46;;;;;;;14.85;5.53;;;;;;;16.69;87.95;101428.63;5058496;28;20500;-72
2023/07/08 01:29:12;;;;;;;15.88;5.70;;;;;;;16.68;90.21;101435.03;5065538;28;20026;-72
2023/07/08 01:31:38;;;;;;;17.42;6.35;;;;;;;16.66;91.18;101425.31;5057283;28;20108;-73
2023/07/08 01:34:05;;;;;;;14.18;5.78;;;;;;;16.65;90.49;101423.59;5062776;28;20032;-73
2023/07/08 01:36:38;;;;;;;17.65;5.65;;;;;;;16.65;87.98;101418.16;5035066;28;20086;-73
2023/07/08 01:39:04;;;;;;;15.30;6.55;;;;;;;16.65;89.92;101426.28;5063166;28;20469;-72
2023/07/08 01:41:29;;;;;;;19.08;5.95;;;;;;;16.64;90.40;101417.31;5061923;28;20044;-73
2023/07/08 01:43:54;;;;;;;17.90;6.20;;;;;;;16.63;88.01;101421.00;5061118;28;20037;-72
2023/07/08 01:46:26;;;;;;;17.02;6.03;;;;;;;16.62;89.58;101416.59;5060077;28;20025;-72
2023/07/08 01:48:56;;;;;;;16.77;6.38;;;;;;;16.59;89.42;101425.03;5045112;28;20428;-73
2023/07/08 01:51:23;;;;;;;17.88;6.55;;;;;;;16.60;87.73;101426.72;5041631;28;20028;-73
2023/07/08 01:53:49;;;;;;;16.45;6.63;;;;;;;16.55;88.74;101418.16;5057574;28;20028;-72
2023/07/08 01:56:15;;;;;;;15.50;5.90;;;;;;;16.56;90.67;101409.88;5060873;28;20499;-73
2023/07/08 01:58:40;;;;;;;15.35;6.75;;;;;;;16.57;90.12;101410.72;5062763;28;20503;-72
2023/07/08 02:01:06;;;;;;;17.63;6.53;;;;;;;16.53;87.98;101404.72;5053779;28;20024;-72
2023/07/08 02:03:32;;;;;;;18.58;7.05;;;;;;;16.51;88.34;101400.41;5052922;28;20566;-72
2023/07/08 02:05:58;;;;;;;15.40;6.75;;;;;;;16.49;88.26;101407.84;5063465;28;20036;-72
2023/07/08 02:08:24;;;;;;;16.42;6.25;;;;;;;16.47;88.78;101404.41;5053179;28;20024;-72
2023/07/08 02:10:52;;;;;;;15.45;5.78;;;;;;;16.45;89.33;101404.53;5062718;28;20036;-72
2023/07/08 02:13:18;;;;;;;13.32;6.00;;;;;;;16.43;89.25;101396.53;5065494;28;20074;-73
2023/07/08 02:15:43;;;;;;;15.20;6.25;;;;;;;16.41;90.18;101393.13;5063830;28;20060;-72
2023/07/08 02:18:09;;;;;;;17.33;5.93;;;;;;;16.38;89.87;101389.81;5054439;28;20071;-73
2023/07/08 02:20:34;;;;;;;16.45;5.90;;;;;;;16.36;89.05;101386.38;5062361;28;20040;-72
2023/07/08 02:22:59;;;;;;;17.20;5.72;;;;;;;16.34;89.32;101378.38;5063013;28;20028;-73
2023/07/08 02:25:25;;;;;;;15.20;5.00;;;;;;;16.34;90.41;101377.50;5060238;28;20025;-72
2023/07/08 02:27:54;;;;;;;15.63;5.60;;;;;;;16.32;90.50;101377.63;5043316;28;20032;-72
2023/07/08 02:30:19;;;;;;;14.15;5.47;;;;;;;16.29;91.08;101379.78;5054105;28;20031;-72
2023/07/08 02:32:56;;;;;;;17.50;6.15;;;;;;;16.25;91.83;101373.75;5058092;28;20116;-72
2023/07/08 02:35:24;;;;;;;17.05;6.70;;;;;;;16.21;90.37;101365.03;5058638;28;20017;-72
2023/07/08 02:37:49;;;;;;;17.27;6.30;;;;;;;16.20;90.67;101355.19;5043306;28;20029;-73
2023/07/08 02:40:14;;;;;;;17.90;6.45;;;;;;;16.15;90.97;101352.03;5055888;28;20400;-73
2023/07/08 02:42:40;;;;;;;16.08;5.68;;;;;;;16.14;92.22;101357.59;5058785;28;20024;-72
2023/07/08 02:45:06;;;;;;;16.63;6.15;;;;;;;16.10;91.00;101356.16;5055547;28;20029;-72
2023/07/08 02:47:31;;;;;;;14.57;6.20;;;;;;;16.08;92.15;101357.13;5046495;28;20385;-72
2023/07/08 02:49:56;;;;;;;16.25;6.15;;;;;;;16.04;91.63;101363.81;5064379;28;20029;-72
2023/07/08 02:52:22;;;;;;;17.80;6.88;;;;;;;16.01;90.91;101355.97;5054581;28;20473;-72
2023/07/08 02:54:47;;;;;;;22.58;6.28;;;;;;;15.99;91.62;101359.78;5066860;28;20025;-72
2023/07/08 02:57:12;;;;;;;19.08;6.65;;;;;;;15.96;91.45;101365.50;5062159;28;20036;-72
2023/07/08 02:59:38;;;;;;;16.33;6.50;;;;;;;15.94;91.43;101371.06;5065331;28;20041;-72
2023/07/08 03:02:04;;;;;;;15.77;6.07;;;;;;;15.91;92.10;101376.75;5064947;28;20048;-72
2023/07/08 03:04:30;;;;;;;19.05;7.18;;;;;;;15.89;93.46;101384.16;5066303;28;20032;-72
2023/07/08 03:06:55;;;;;;;17.45;6.45;;;;;;;15.86;93.28;101384.44;5053521;28;20072;-72
2023/07/08 03:09:21;;;;;;;18.38;6.57;;;;;;;15.86;92.52;101382.56;5070300;28;20455;-72
2023/07/08 03:11:46;;;;;;;17.08;7.07;;;;;;;15.87;93.02;101383.41;5064045;28;20094;-72
2023/07/08 03:14:11;;;;;;;18.02;6.88;;;;;;;15.84;94.02;101379.16;5062592;28;20427;-72
2023/07/08 03:16:37;;;;;;;17.30;7.18;;;;;;;15.83;92.76;101377.44;5063308;28;20025;-72
2023/07/08 03:19:02;;;;;;;17.13;6.63;;;;;;;15.83;92.21;101379.28;5048699;28;20033;-73
2023/07/08 03:21:28;;;;;;;18.45;6.75;;;;;;;15.85;92.05;101374.56;5064716;28;20032;-73
2023/07/08 03:23:53;;;;;;;16.10;6.72;;;;;;;15.82;91.57;101377.56;5065103;28;20029;-72
2023/07/08 03:26:23;;;;;;;17.85;6.35;;;;;;;15.82;92.39;101381.13;5060697;28;20020;-73
2023/07/08 03:28:48;;;;;;;;;;;;;;;15.93;89.85;101373.91;5063319;28;20025;-72
2023/07/08 03:31:14;;;;;;;16.38;7.05;;;;;;;15.85;90.75;101380.00;5067752;28;19920;-72
2023/07/08 03:33:39;;;;;;;18.17;6.55;;;;;;;15.83;92.25;101385.56;5064176;28;20214;-72
2023/07/08 03:36:12;;;;;;;24.85;6.93;;;;;;;15.81;92.78;101378.53;5050974;28;20035;-72
2023/07/08 03:38:37;;;;;;;17.65;6.63;;;;;;;15.83;90.95;101384.72;5058351;28;20073;-72
2023/07/08 03:41:02;;;;;;;17.20;6.10;;;;;;;15.84;90.66;101386.41;5068393;28;20388;-74
2023/07/08 03:43:28;;;;;;;15.95;6.15;;;;;;;15.81;92.56;101383.97;5063021;28;20059;-73
2023/07/08 03:45:53;;;;;;;17.80;6.88;;;;;;;15.81;90.97;101394.81;5055589;28;20362;-72
2023/07/08 03:48:18;;;;;;;18.25;6.25;;;;;;;15.78;91.93;101386.91;5066073;28;20387;-72
2023/07/08 03:50:44;;;;;;;17.38;6.95;;;;;;;15.77;92.23;101391.50;5050319;28;20511;-72
2023/07/08 03:53:09;;;;;;;18.02;6.50;;;;;;;15.73;92.65;101390.88;5049244;28;20116;-72
2023/07/08 03:55:34;;;;;;;18.13;6.65;;;;;;;15.71;93.43;101401.00;5057468;28;20089;-72
2023/07/08 03:58:01;;;;;;;18.08;7.03;;;;;;;15.69;93.61;101408.38;5068393;28;20131;-73
2023/07/08 04:00:26;;;;;;;17.10;6.75;;;;;;;15.67;94.04;101401.41;5068057;28;20063;-72
2023/07/08 04:02:51;;;;;;;18.50;6.68;;;;;;;15.62;92.80;101399.06;5058699;28;20437;-73
2023/07/08 04:05:19;;;;;;;17.23;7.13;;;;;;;15.61;94.48;101404.63;5068252;28;20555;-72
2023/07/08 04:07:45;;;;;;;16.95;6.57;;;;;;;15.61;93.92;101400.06;5067839;28;20025;-72
2023/07/08 04:10:11;;;;;;;18.02;6.93;;;;;;;15.62;94.53;101403.63;5044391;28;20396;-72
2023/07/08 04:12:37;;;;;;;18.38;6.50;;;;;;;15.60;94.25;101398.34;5058341;28;20463;-73
2023/07/08 04:15:03;;;;;;;16.90;6.55;;;;;;;15.61;92.90;101397.38;5041674;28;20025;-72
2023/07/08 04:17:29;;;;;;;16.98;6.85;;;;;;;15.60;94.68;101406.47;5066829;28;20028;-72
2023/07/08 04:19:56;;;;;;;17.77;7.10;;;;;;;15.62;94.35;101404.47;5058969;28;20037;-72
2023/07/08 04:22:22;;;;;;;19.17;7.55;;;;;;;15.64;94.48;101394.41;5038989;28;20112;-72
2023/07/08 04:24:47;;;;;;;17.52;6.80;;;;;;;15.66;95.12;101400.53;5064345;28;20248;-72
2023/07/08 04:27:17;;;;;;;16.77;6.45;;;;;;;15.67;96.54;101404.97;5046982;28;20429;-72
2023/07/08 04:29:44;;;;;;;18.50;7.30;;;;;;;15.68;95.46;101403.97;5063960;28;20028;-72
2023/07/08 04:32:09;;;;;;;18.17;7.18;;;;;;;15.69;95.96;101402.97;5058525;28;20495;-72
2023/07/08 04:34:35;;;;;;;16.55;6.97;;;;;;;15.69;95.55;101400.25;5067859;28;20024;-73
2023/07/08 04:37:01;;;;;;;17.88;7.35;;;;;;;15.71;96.84;101400.13;5066996;28;20037;-72
2023/07/08 04:39:26;;;;;;;18.30;6.65;;;;;;;15.71;96.58;101397.41;5041712;28;20486;-72
2023/07/08 04:41:52;;;;;;;18.65;6.72;;;;;;;15.71;97.50;101392.88;5056586;28;20032;-72
2023/07/08 04:44:18;;;;;;;15.77;6.38;;;;;;;15.75;96.47;101398.03;5047789;28;20035;-72
2023/07/08 04:46:50;;;;;;;18.95;7.00;;;;;;;15.77;96.75;101391.50;5037715;28;20017;-73
2023/07/08 04:49:16;;;;;;;18.02;6.93;;;;;;;15.80;97.21;101393.97;5059394;28;20057;-72
2023/07/08 04:51:42;;;;;;;16.60;6.50;;;;;;;15.83;96.25;101400.97;5067145;28;20017;-73
2023/07/08 04:54:08;;;;;;;18.85;7.57;;;;;;;15.86;96.58;101396.13;5061601;28;20108;-72
2023/07/08 04:56:42;;;;;;;17.42;7.60;;;;;;;15.93;96.96;101390.16;5062326;28;20409;-72
2023/07/08 04:59:09;;;;;;;19.15;7.65;;;;;;;15.94;97.68;101394.59;5055017;28;20057;-72
2023/07/08 05:01:35;;;;;;;17.85;7.07;;;;;;;15.99;97.16;101398.63;5061489;28;20029;-72
2023/07/08 05:04:01;;;;;;;18.65;7.53;;;;;;;16.03;99.38;101394.66;5065437;28;20028;-73
2023/07/08 05:06:27;;;;;;;17.45;7.18;;;;;;;16.07;97.08;101392.53;5061677;28;20491;-72
2023/07/08 05:08:53;;;;;;;19.63;7.55;;;;;;;16.11;97.35;101393.13;5068845;28;20096;-72
2023/07/08 05:11:18;;;;;;;17.45;6.95;;;;;;;16.17;97.42;101392.59;5059439;28;20023;-72
2023/07/08 05:13:43;;;;;;;20.58;6.95;;;;;;;16.21;97.98;101394.03;5065451;28;20031;-72
2023/07/08 05:16:09;;;;;;;19.20;7.68;;;;;;;16.23;95.98;101400.16;5064395;28;20028;-72
2023/07/08 05:18:34;;;;;;;18.27;7.40;;;;;;;16.26;94.90;101394.47;5048061;28;20029;-72
2023/07/08 05:20:59;;;;;;;18.10;6.95;;;;;;;16.30;97.03;101398.63;5064126;28;20037;-72
2023/07/08 05:23:25;;;;;;;19.88;7.43;;;;;;;16.31;96.01;101394.06;5063236;28;20054;-73
2023/07/08 05:25:50;;;;;;;18.08;7.40;;;;;;;16.34;96.96;101394.66;5053428;28;20036;-72
2023/07/08 05:28:15;;;;;;;18.50;8.00;;;;;;;16.36;95.90;101398.06;5062018;28;20027;-72
2023/07/08 05:30:41;;;;;;;17.88;6.80;;;;;;;16.41;95.19;101398.53;5044502;28;20029;-72
2023/07/08 05:33:07;;;;;;;16.25;6.93;;;;;;;16.45;95.67;101392.84;5064019;28;20021;-73
2023/07/08 05:35:33;;;;;;;18.52;7.15;;;;;;;16.51;95.95;101389.56;5040378;28;20025;-72
2023/07/08 05:37:58;;;;;;;18.02;7.13;;;;;;;16.56;95.80;101390.88;5062038;28;20380;-73
2023/07/08 05:40:23;;;;;;;16.80;7.25;;;;;;;16.61;92.98;101385.03;5065827;28;20106;-72
2023/07/08 05:42:49;;;;;;;18.30;7.25;;;;;;;16.68;94.01;101391.63;5038020;28;20025;-72
2023/07/08 05:45:14;;;;;;;19.52;7.68;;;;;;;16.74;95.53;101388.34;5044899;28;20434;-72
2023/07/08 05:47:40;;;;;;;19.05;7.45;;;;;;;16.81;96.07;101380.50;5053395;28;20122;-72
2023/07/08 05:50:05;;;;;;;18.98;8.07;;;;;;;16.87;95.88;101389.94;5063164;28;20032;-72
2023/07/08 05:52:31;;;;;;;18.42;7.60;;;;;;;16.96;90.08;101382.84;5055600;28;20036;-72
2023/07/08 05:54:56;;;;;;;20.88;8.45;;;;;;;17.04;90.29;101392.00;5057529;28;20435;-72
2023/07/08 05:57:23;;;;;;;18.95;7.63;;;;;;;17.14;94.21;101388.41;5044937;28;20020;-72
2023/07/08 05:59:50;;;;;;;19.20;7.68;;;;;;;17.19;92.26;101384.28;5044131;28;20021;-73
2023/07/08 06:02:16;;;;;;;19.48;8.00;;;;;;;17.26;93.09;101396.28;5060458;28;20045;-73
2023/07/08 06:04:41;;;;;;;21.27;7.07;;;;;;;17.32;93.36;101392.16;5055677;28;20098;-73
2023/07/08 06:07:07;;;;;;;19.58;8.00;;;;;;;17.37;91.80;101392.56;5055159;28;20033;-72
2023/07/08 06:09:32;;;;;;;17.02;5.82;;;;;;;17.41;84.95;101398.56;5044268;28;20021;-72
2023/07/08 06:11:57;;;;;;;18.38;6.43;;;;;;;17.50;85.38;101396.84;5068726;28;20640;-73
2023/07/08 06:14:23;;;;;;;16.70;6.05;;;;;;;17.58;86.54;101396.97;5059267;28;20029;-72
2023/07/08 06:16:48;;;;;;;20.45;7.55;;;;;;;17.63;86.98;101400.13;5046457;28;20424;-73
2023/07/08 06:19:14;;;;;;;18.15;7.10;;;;;;;17.75;82.46;101404.38;5063379;28;20020;-73
2023/07/08 06:21:40;;;;;;;18.40;6.50;;;;;;;17.79;81.52;101399.53;5062627;28;20029;-73
2023/07/08 06:24:06;;;;;;;19.25;6.78;;;;;;;17.89;83.01;101403.09;5066206;28;20032;-73
2023/07/08 06:26:31;;;;;;;16.77;6.78;;;;;;;18.01;80.21;101395.66;5040143;28;20025;-72
2023/07/08 06:28:57;;;;;;;18.27;7.13;;;;;;;18.09;80.19;101409.34;5048349;28;20025;-69
2023/07/08 06:31:22;;;;;;;19.05;7.05;;;;;;;18.24;78.28;101401.53;5068269;28;20028;-70
2023/07/08 06:33:47;;;;;;;19.40;7.22;;;;;;;18.28;78.70;101402.13;5067192;28;20024;-70
2023/07/08 06:36:12;;;;;;;17.83;6.30;;;;;;;18.33;80.51;101410.69;5065769;28;20035;-70
2023/07/08 06:38:38;;;;;;;18.75;6.68;;;;;;;18.34;78.82;101401.50;5064432;28;20048;-71
2023/07/08 06:41:03;;;;;;;15.60;5.50;;;;;;;18.34;77.12;101401.50;5063762;28;20464;-70
2023/07/08 06:43:28;;;;;;;17.42;6.88;;;;;;;18.45;80.43;101398.59;5063533;28;20035;-69
2023/07/08 06:45:54;;;;;;;17.13;6.43;;;;;;;18.52;80.07;101398.84;5061607;28;20533;-71
2023/07/08 06:48:19;;;;;;;18.98;7.30;;;;;;;18.55;77.10;101405.84;5035192;28;20126;-70
2023/07/08 06:50:48;;;;;;;17.52;7.28;;;;;;;18.64;78.17;101402.25;5064610;28;20040;-70
2023/07/08 06:53:14;;;;;;;17.38;6.68;;;;;;;18.76;78.61;101406.47;5064759;28;20028;-69
2023/07/08 06:55:40;;;;;;;14.55;5.82;;;;;;;18.74;76.19;101397.59;5063519;28;20060;-71
2023/07/08 06:58:05;;;;;;;14.15;5.70;;;;;;;18.75;75.42;101393.00;5064349;28;20068;-70
2023/07/08 07:00:30;;;;;;;19.05;7.90;;;;;;;18.89;76.88;101389.78;5056343;28;20036;-70
2023/07/08 07:02:56;;;;;;;16.23;6.13;;;;;;;18.92;75.58;101388.59;5064426;28;20123;-70
2023/07/08 07:05:21;;;;;;;15.80;6.07;;;;;;;19.01;77.48;101393.16;5064596;28;20025;-70
2023/07/08 07:07:46;;;;;;;21.80;7.25;;;;;;;19.08;75.50;101388.78;5067349;28;20376;-62
2023/07/08 07:10:12;;;;;;;19.20;6.60;;;;;;;19.10;75.30;101392.19;5061643;28;20047;-62
2023/07/08 07:12:37;;;;;;;15.55;5.90;;;;;;;19.16;74.80;101394.31;5066222;28;20059;-66
2023/07/08 07:15:03;;;;;;;18.25;7.78;;;;;;;19.36;74.56;101391.44;5063229;28;20029;-67
2023/07/08 07:17:29;;;;;;;20.85;7.93;;;;;;;19.55;72.40;101388.50;5061894;28;20029;-73
2023/07/08 07:19:54;;;;;;;17.88;6.70;;;;;;;19.66;73.41;101401.03;5049091;28;20031;-73
2023/07/08 07:22:20;;;;;;;20.52;6.35;;;;;;;19.71;74.88;101395.97;5064423;28;20021;-73
2023/07/08 07:24:45;;;;;;;19.42;6.40;;;;;;;19.66;74.50;101384.66;5050501;28;20024;-73
2023/07/08 07:27:11;;;;;;;17.15;6.07;;;;;;;19.71;73.55;101389.66;5060673;28;20070;-72
2023/07/08 07:29:44;;;;;;;18.60;7.30;;;;;;;19.89;72.04;101387.75;5067417;28;20021;-73
2023/07/08 07:32:11;;;;;;;16.13;5.75;;;;;;;19.84;72.97;101389.25;5038733;28;20060;-73
2023/07/08 07:34:37;;;;;;;16.65;6.18;;;;;;;19.85;72.96;101399.16;5039761;28;20027;-73
2023/07/08 07:37:03;;;;;;;15.82;5.65;;;;;;;19.86;72.84;101393.53;5064913;28;20062;-73
2023/07/08 07:39:28;;;;;;;26.25;7.40;;;;;;;19.99;72.77;101398.56;5062803;28;20105;-72
2023/07/08 07:41:54;;;;;;;17.15;6.00;;;;;;;19.97;72.93;101397.00;5063172;28;20468;-73
2023/07/08 07:44:19;;;;;;;18.08;6.93;;;;;;;20.05;72.85;101389.72;5047515;28;20037;-72
2023/07/08 07:46:46;;;;;;;18.30;6.55;;;;;;;20.10;72.91;101394.69;5048464;28;20036;-72
2023/07/08 07:49:11;;;;;;;16.80;5.55;;;;;;;20.13;73.14;101394.38;5066813;28;20032;-73
2023/07/08 07:51:36;;;;;;;19.13;7.43;;;;;;;20.27;70.88;101386.63;5063570;28;20048;-73
2023/07/08 07:54:02;;;;;;;16.80;5.95;;;;;;;20.20;72.93;101387.25;5063187;28;20037;-72
2023/07/08 07:56:27;;;;;;;20.92;7.75;;;;;;;20.37;69.16;101387.34;5054851;28;20060;-72
2023/07/08 07:58:52;;;;;;;20.40;7.80;;;;;;;20.59;67.78;101389.47;5066225;28;20106;-72
2023/07/08 08:01:19;;;;;;;19.40;7.25;;;;;;;20.68;70.38;101386.81;5065965;28;20090;-73
2023/07/08 08:03:45;;;;;;;23.75;7.40;;;;;;;20.84;68.67;101383.28;5063130;28;20524;-73
2023/07/08 08:06:10;;;;;;;19.42;6.50;;;;;;;20.78;71.37;101376.59;5062895;28;20087;-72
2023/07/08 08:08:35;;;;;;;19.58;7.15;;;;;;;20.92;71.33;101383.28;5054507;28;20039;-72
2023/07/08 08:11:00;;;;;;;19.13;7.10;;;;;;;20.97;68.26;101383.63;5048105;28;20020;-72
2023/07/08 08:13:26;;;;;;;17.83;7.28;;;;;;;20.94;71.29;101393.03;5066156;28;20558;-73
2023/07/08 08:15:59;;;;;;;18.60;7.13;;;;;;;21.08;67.85;101399.72;5063981;28;20035;-73
2023/07/08 08:18:24;;;;;;;16.70;6.07;;;;;;;21.02;69.46;101396.78;5063151;28;20477;-72
2023/07/08 08:20:51;;;;;;;18.27;5.95;;;;;;;21.00;71.43;101404.31;5063701;28;20040;-73
2023/07/08 08:23:16;;;;;;;15.25;5.88;;;;;;;21.02;71.69;101402.25;5065758;28;20031;-72
2023/07/08 08:25:41;;;;;;;21.00;7.78;;;;;;;21.19;67.47;101401.25;5047675;28;20119;-73
2023/07/08 08:28:06;;;;;;;21.00;7.70;;;;;;;21.35;66.49;101403.16;5063301;28;20119;-73
2023/07/08 08:30:32;;;;;;;18.55;6.57;;;;;;;21.33;69.72;101415.28;5062509;28;20029;-72
2023/07/08 08:32:58;;;;;;;17.73;7.10;;;;;;;21.53;65.22;101413.13;5042407;28;20040;-73
2023/07/08 08:35:23;;;;;;;18.83;6.53;;;;;;;21.52;68.89;101412.25;5047905;28;20024;-72
2023/07/08 08:37:48;;;;;;;21.08;7.25;;;;;;;21.57;68.04;101417.22;5065704;28;20036;-72
2023/07/08 08:40:18;;;;;;;18.45;6.78;;;;;;;21.62;69.62;101415.66;5063803;28;20111;-73
2023/07/08 08:42:53;;;;;;;17.02;6.28;;;;;;;21.61;68.85;101419.44;5062370;28;20028;-72
2023/07/08 08:45:20;;;;;;;18.88;6.45;;;;;;;21.61;68.19;101419.44;5062114;28;20082;-72
2023/07/08 08:47:51;;;;;;;16.27;6.38;;;;;;;21.64;70.13;101421.81;5062378;28;20116;-72
2023/07/08 08:50:39;;;;;;;17.33;6.45;;;;;;;21.63;69.18;101420.09;5062047;28;20033;-72
2023/07/08 08:53:10;;;;;;;19.45;6.88;;;;;;;21.61;70.85;101422.19;5065240;28;20039;-73
2023/07/08 08:55:35;;;;;;;18.10;6.90;;;;;;;21.73;67.79;101422.69;5062003;28;20082;-73
2023/07/08 08:58:30;;;;;;;15.10;6.70;;;;;;;21.75;69.23;101422.50;5062178;28;20033;-73
2023/07/08 09:00:59;;;;;;;19.25;7.05;;;;;;;22.05;63.04;101434.63;5054923;28;20082;-73
2023/07/08 09:03:43;;;;;;;15.45;6.00;;;;;;;22.13;64.33;101426.38;5029510;28;20049;-73
2023/07/08 09:06:12;;;;;;;13.93;5.22;;;;;;;22.18;65.31;101428.56;5045417;28;20111;-72
2023/07/08 09:08:38;;;;;;;14.48;5.53;;;;;;;22.18;64.24;101428.56;5025762;28;20020;-73
2023/07/08 09:11:32;;;;;;;16.55;5.18;;;;;;;22.13;67.72;101431.84;5041300;28;20427;-73
2023/07/08 09:13:58;;;;;;;12.05;5.13;;;;;;;22.09;66.91;101424.16;5034142;28;20116;-74
2023/07/08 09:16:42;;;;;;;15.10;5.65;;;;;;;22.22;66.87;101423.63;5040687;28;20116;-73
2023/07/08 09:19:12;;;;;;;15.88;5.90;;;;;;;22.23;65.69;101414.38;5019906;28;20029;-73
2023/07/08 09:21:43;;;;;;;19.02;7.10;;;;;;;22.34;62.69;101412.16;5030348;28;20098;-72
2023/07/08 09:24:31;;;;;;;18.80;7.53;;;;;;;22.36;62.92;101413.84;5040448;28;20474;-73
2023/07/08 09:27:00;;;;;;;15.50;6.00;;;;;;;22.29;65.94;101409.03;5026536;28;20508;-73
2023/07/08 09:29:26;;;;;;;17.52;6.55;;;;;;;22.23;66.70;101417.97;5053328;28;20467;-74
2023/07/08 09:31:51;;;;;;;17.25;6.38;;;;;;;22.25;65.91;101420.53;5060088;28;20033;-73
2023/07/08 09:34:22;;;;;;;17.92;6.88;;;;;;;22.24;66.63;101408.72;5033660;28;20029;-73
2023/07/08 09:36:50;;;;;;;19.45;7.28;;;;;;;22.48;62.72;101406.97;5045129;28;20037;-73
2023/07/08 09:39:20;;;;;;;20.88;8.05;;;;;;;22.59;63.19;101402.97;5047632;28;20037;-73
2023/07/08 09:41:47;;;;;;;18.77;6.53;;;;;;;22.52;64.78;101397.34;5049709;28;20033;-73
2023/07/08 09:44:26;;;;;;;16.08;5.68;;;;;;;22.43;64.86;101398.41;5033669;28;20028;-73
2023/07/08 09:46:53;;;;;;;16.17;6.57;;;;;;;22.40;63.75;101391.41;5048697;28;20397;-73
2023/07/08 09:49:31;;;;;;;17.85;6.43;;;;;;;22.38;66.62;101387.16;5049669;28;20116;-74
2023/07/08 09:51:57;;;;;;;20.33;7.20;;;;;;;22.45;65.11;101396.38;5045940;28;20033;-75
2023/07/08 09:54:24;;;;;;;18.17;6.82;;;;;;;22.42;64.46;101385.75;5048113;28;20022;-71
2023/07/08 09:57:01;;;;;;;19.85;7.15;;;;;;;22.45;67.04;101393.63;5042446;28;20037;-71
2023/07/08 09:59:31;;;;;;;17.52;7.20;;;;;;;22.47;71.05;101392.38;5037361;28;20112;-72
2023/07/08 10:02:01;;;;;;;18.02;6.07;;;;;;;22.44;70.25;101397.38;5036020;28;20022;-72
2023/07/08 10:04:26;;;;;;;17.52;6.80;;;;;;;22.47;65.80;101391.53;5043574;28;20617;-72
2023/07/08 10:06:54;;;;;;;18.45;6.47;;;;;;;22.55;67.97;101396.13;5042897;28;20039;-73
2023/07/08 10:09:23;;;;;;;17.50;6.70;;;;;;;22.65;66.62;101392.16;5062115;28;20025;-72
2023/07/08 10:11:58;;;;;;;17.92;7.13;;;;;;;22.75;63.52;101389.16;5043122;28;20028;-72
2023/07/08 10:14:29;;;;;;;21.67;6.97;;;;;;;22.82;64.25;101397.53;5046046;28;20385;-73
2023/07/08 10:16:55;;;;;;;19.13;6.63;;;;;;;22.72;65.36;101397.75;5054596;28;20484;-72
2023/07/08 10:19:21;;;;;;;17.63;6.85;;;;;;;22.72;64.88;101391.44;5045663;28;20154;-72
2023/07/08 10:22:21;;;;;;;20.17;7.15;;;;;;;22.86;64.01;101393.41;5052620;28;20380;-71
2023/07/08 10:25:11;;;;;;;19.55;7.15;;;;;;;22.98;64.07;101389.22;5021639;28;20540;-72
2023/07/08 10:27:49;;;;;;;21.30;8.38;;;;;;;23.25;58.38;101392.50;5035247;28;20029;-71
2023/07/08 10:30:35;;;;;;;17.88;6.63;;;;;;;23.33;62.50;101394.31;5025303;28;20373;-70
2023/07/08 10:33:14;;;;;;;16.52;6.75;;;;;;;23.37;63.77;101391.03;5042172;28;20025;-72
2023/07/08 10:35:42;;;;;;;;;;;;;;;23.35;64.62;101400.47;5049192;28;20017;-71
2023/07/08 10:38:10;;;;;;;21.50;7.53;;;;;;;23.54;58.15;101399.97;5043865;28;20019;-72
2023/07/08 10:40:48;;;;;;;19.08;8.07;;;;;;;23.59;56.30;101391.19;5041185;28;20281;-72
2023/07/08 10:43:38;;;;;;;20.33;7.27;;;;;;;23.58;62.44;101397.69;5047514;28;20072;-72
2023/07/08 10:46:18;;;;;;;18.60;7.63;;;;;;;23.81;61.12;101403.16;5020072;28;20029;-74
2023/07/08 10:48:53;;;;;;;19.60;6.90;;;;;;;23.80;59.66;101404.19;5040481;28;20559;-72
2023/07/08 10:51:39;;;;;;;17.90;7.05;;;;;;;23.82;58.92;101404.00;5042466;28;20029;-72
2023/07/08 10:54:37;;;;;;;16.52;6.35;;;;;;;23.60;63.45;101409.34;5041940;28;21299;-73
2023/07/08 10:57:12;;;;;;;18.67;6.90;;;;;;;23.62;61.09;101403.66;5046130;28;20041;-73
2023/07/08 10:59:42;;;;;;;17.83;6.65;;;;;;;23.51;62.67;101410.44;5056312;28;20611;-73
2023/07/08 11:02:31;;;;;;;17.33;6.78;;;;;;;23.59;63.08;101404.91;5040898;28;20049;-73
2023/07/08 11:05:27;;;;;;;16.80;6.47;;;;;;;23.59;60.42;101396.69;5032765;28;20048;-73
2023/07/08 11:07:58;;;;;;;18.40;5.93;;;;;;;23.56;62.00;101399.78;5031628;28;20029;-72
2023/07/08 11:10:31;;;;;;;16.45;5.80;;;;;;;23.59;62.04;101393.94;5043904;28;20381;-72
2023/07/08 11:13:10;;;;;;;19.08;7.28;;;;;;;23.97;58.43;101393.94;5032798;28;20517;-71
2023/07/08 11:15:54;;;;;;;15.95;6.13;;;;;;;23.83;60.05;101400.22;5020139;28;20026;-74
2023/07/08 11:18:29;;;;;;;17.98;7.10;;;;;;;23.87;56.06;101396.09;5048185;28;20083;-71
2023/07/08 11:21:04;;;;;;;21.33;8.68;;;;;;;23.89;52.45;101397.59;5033693;28;20378;-71
2023/07/08 11:23:40;;;;;;;18.13;6.80;;;;;;;23.87;53.40;101398.84;5040803;28;20029;-71
2023/07/08 11:26:30;;;;;;;17.38;6.97;;;;;;;23.84;57.67;101394.53;5048469;28;20035;-71